sensor_id;sensor_type;location;lat;lon;timestamp;P1;durP1;ratioP1;P2;durP2;ratioP2
1613;SDS011;800;48.824;9.346;2023-11-19T00:02:07;3.70;;;2.83;;
1613;SDS011;800;48.824;9.346;2023-11-19T00:04:36;2.63;;;2.43;;
1613;SDS011;800;48.824;9.346;2023-11-19T00:07:04;3.47;;;2.70;;
1613;SDS011;800;48.824;9.346;2023-11-19T00:09:31;4.13;;;2.70;;
1613;SDS011;800;48.824;9.346;2023-11-19T00:12:02;3.23;;;2.93;;
1613;SDS011;800;48.824;9.346;2023-11-19T00:14:33;3.13;;;2.87;;
1613;SDS011;800;48.824;9.346;2023-11-19T00:16:59;2.87;;;2.63;;
1613;SDS011;800;48.824;9.346;2023-11-19T00:19:25;3.00;;;2.70;;
1613;SDS011;800;48.824;9.346;2023-11-19T00:21:51;5.70;;;3.00;;
1613;SDS011;800;48.824;9.346;2023-11-19T00:24:17;2.70;;;2.50;;
1613;SDS011;800;48.824;9.346;2023-11-19T00:26:43;3.60;;;2.90;;
1613;SDS011;800;48.824;9.346;2023-11-19T00:29:09;2.73;;;2.53;;
1613;SDS011;800;48.824;9.346;2023-11-19T00:31:34;3.07;;;2.50;;
1613;SDS011;800;48.824;9.346;2023-11-19T00:34:00;4.50;;;3.17;;
1613;SDS011;800;48.824;9.346;2023-11-19T00:36:26;2.80;;;2.57;;
1613;SDS011;800;48.824;9.346;2023-11-19T00:38:53;4.27;;;3.33;;
1613;SDS011;800;48.824;9.346;2023-11-19T00:41:18;4.07;;;3.00;;
1613;SDS011;800;48.824;9.346;2023-11-19T00:43:44;2.80;;;2.60;;
1613;SDS011;800;48.824;9.346;2023-11-19T00:46:09;3.37;;;3.07;;
1613;SDS011;800;48.824;9.346;2023-11-19T00:48:41;3.03;;;2.80;;
1613;SDS011;800;48.824;9.346;2023-11-19T00:51:07;2.63;;;2.43;;
1613;SDS011;800;48.824;9.346;2023-11-19T00:53:32;2.87;;;2.67;;
1613;SDS011;800;48.824;9.346;2023-11-19T00:55:59;2.80;;;2.57;;
1613;SDS011;800;48.824;9.346;2023-11-19T00:58:25;4.87;;;2.63;;
1613;SDS011;800;48.824;9.346;2023-11-19T01:00:50;2.73;;;2.53;;
1613;SDS011;800;48.824;9.346;2023-11-19T01:03:16;2.17;;;2.00;;
1613;SDS011;800;48.824;9.346;2023-11-19T01:05:42;4.50;;;2.57;;
1613;SDS011;800;48.824;9.346;2023-11-19T01:08:08;2.13;;;1.93;;
1613;SDS011;800;48.824;9.346;2023-11-19T01:10:34;2.30;;;2.10;;
1613;SDS011;800;48.824;9.346;2023-11-19T01:13:02;2.50;;;2.30;;
1613;SDS011;800;48.824;9.346;2023-11-19T01:15:30;2.30;;;2.10;;
1613;SDS011;800;48.824;9.346;2023-11-19T01:17:56;2.23;;;2.00;;
1613;SDS011;800;48.824;9.346;2023-11-19T01:20:22;2.53;;;2.20;;
1613;SDS011;800;48.824;9.346;2023-11-19T01:22:48;3.20;;;2.00;;
1613;SDS011;800;48.824;9.346;2023-11-19T01:25:14;2.50;;;2.30;;
1613;SDS011;800;48.824;9.346;2023-11-19T01:27:39;2.00;;;1.90;;
1613;SDS011;800;48.824;9.346;2023-11-19T01:30:05;6.10;;;2.30;;
1613;SDS011;800;48.824;9.346;2023-11-19T01:32:34;2.27;;;2.07;;
1613;SDS011;800;48.824;9.346;2023-11-19T01:35:01;4.97;;;2.33;;
1613;SDS011;800;48.824;9.346;2023-11-19T01:37:27;2.30;;;1.83;;
1613;SDS011;800;48.824;9.346;2023-11-19T01:39:53;2.67;;;2.17;;
1613;SDS011;800;48.824;9.346;2023-11-19T01:42:18;1.77;;;1.67;;
1613;SDS011;800;48.824;9.346;2023-11-19T01:44:54;2.83;;;1.80;;
1613;SDS011;800;48.824;9.346;2023-11-19T01:47:23;2.23;;;1.90;;
1613;SDS011;800;48.824;9.346;2023-11-19T01:49:50;1.83;;;1.73;;
1613;SDS011;800;48.824;9.346;2023-11-19T01:52:16;2.40;;;2.00;;
1613;SDS011;800;48.824;9.346;2023-11-19T01:54:42;4.07;;;1.83;;
1613;SDS011;800;48.824;9.346;2023-11-19T01:57:08;2.90;;;2.70;;
1613;SDS011;800;48.824;9.346;2023-11-19T01:59:34;2.13;;;1.90;;
1613;SDS011;800;48.824;9.346;2023-11-19T02:02:00;2.40;;;1.97;;
1613;SDS011;800;48.824;9.346;2023-11-19T02:04:25;2.30;;;2.10;;
1613;SDS011;800;48.824;9.346;2023-11-19T02:06:51;1.80;;;1.70;;
1613;SDS011;800;48.824;9.346;2023-11-19T02:09:21;1.90;;;1.80;;
1613;SDS011;800;48.824;9.346;2023-11-19T02:11:46;2.50;;;1.87;;
1613;SDS011;800;48.824;9.346;2023-11-19T02:14:15;2.00;;;1.90;;
1613;SDS011;800;48.824;9.346;2023-11-19T02:16:42;1.80;;;1.70;;
1613;SDS011;800;48.824;9.346;2023-11-19T02:19:07;2.50;;;2.10;;
1613;SDS011;800;48.824;9.346;2023-11-19T02:21:35;2.07;;;1.87;;
1613;SDS011;800;48.824;9.346;2023-11-19T02:24:01;1.97;;;1.87;;
1613;SDS011;800;48.824;9.346;2023-11-19T02:26:56;2.60;;;1.90;;
1613;SDS011;800;48.824;9.346;2023-11-19T02:29:27;1.97;;;1.87;;
1613;SDS011;800;48.824;9.346;2023-11-19T02:31:52;2.07;;;1.90;;
1613;SDS011;800;48.824;9.346;2023-11-19T02:34:20;1.83;;;1.73;;
1613;SDS011;800;48.824;9.346;2023-11-19T02:36:46;2.27;;;2.07;;
1613;SDS011;800;48.824;9.346;2023-11-19T02:39:12;1.40;;;1.30;;
1613;SDS011;800;48.824;9.346;2023-11-19T02:41:38;1.60;;;1.50;;
1613;SDS011;800;48.824;9.346;2023-11-19T02:44:05;1.80;;;1.70;;
1613;SDS011;800;48.824;9.346;2023-11-19T02:46:31;1.60;;;1.50;;
1613;SDS011;800;48.824;9.346;2023-11-19T02:48:57;2.10;;;2.00;;
1613;SDS011;800;48.824;9.346;2023-11-19T02:51:22;1.70;;;1.60;;
1613;SDS011;800;48.824;9.346;2023-11-19T02:53:48;1.73;;;1.63;;
1613;SDS011;800;48.824;9.346;2023-11-19T02:56:14;2.00;;;1.77;;
1613;SDS011;800;48.824;9.346;2023-11-19T02:58:59;1.80;;;1.60;;
1613;SDS011;800;48.824;9.346;2023-11-19T03:01:32;1.60;;;1.50;;
1613;SDS011;800;48.824;9.346;2023-11-19T03:04:00;1.77;;;1.60;;
1613;SDS011;800;48.824;9.346;2023-11-19T03:06:27;1.70;;;1.60;;
1613;SDS011;800;48.824;9.346;2023-11-19T03:08:54;1.80;;;1.43;;
1613;SDS011;800;48.824;9.346;2023-11-19T03:11:20;1.90;;;1.60;;
1613;SDS011;800;48.824;9.346;2023-11-19T03:13:45;2.27;;;1.73;;
1613;SDS011;800;48.824;9.346;2023-11-19T03:16:11;2.10;;;1.30;;
1613;SDS011;800;48.824;9.346;2023-11-19T03:18:37;2.93;;;1.37;;
1613;SDS011;800;48.824;9.346;2023-11-19T03:21:04;1.70;;;1.60;;
1613;SDS011;800;48.824;9.346;2023-11-19T03:23:31;1.30;;;1.20;;
1613;SDS011;800;48.824;9.346;2023-11-19T03:25:56;2.03;;;1.50;;
1613;SDS011;800;48.824;9.346;2023-11-19T03:28:22;1.93;;;1.40;;
1613;SDS011;800;48.824;9.346;2023-11-19T03:30:47;1.87;;;1.53;;
1613;SDS011;800;48.824;9.346;2023-11-19T03:33:13;3.33;;;2.33;;
1613;SDS011;800;48.824;9.346;2023-11-19T03:35:39;5.20;;;3.50;;
1613;SDS011;800;48.824;9.346;2023-11-19T03:38:06;3.20;;;2.50;;
1613;SDS011;800;48.824;9.346;2023-11-19T03:40:31;3.73;;;2.10;;
1613;SDS011;800;48.824;9.346;2023-11-19T03:42:57;2.83;;;2.03;;
1613;SDS011;800;48.824;9.346;2023-11-19T03:45:23;1.80;;;1.60;;
1613;SDS011;800;48.824;9.346;2023-11-19T03:47:49;1.80;;;1.70;;
1613;SDS011;800;48.824;9.346;2023-11-19T03:50:15;3.10;;;1.47;;
1613;SDS011;800;48.824;9.346;2023-11-19T03:52:41;2.23;;;1.50;;
1613;SDS011;800;48.824;9.346;2023-11-19T03:55:07;1.87;;;1.50;;
1613;SDS011;800;48.824;9.346;2023-11-19T03:57:33;1.60;;;1.50;;
1613;SDS011;800;48.824;9.346;2023-11-19T03:59:59;2.63;;;1.57;;
1613;SDS011;800;48.824;9.346;2023-11-19T04:02:27;2.17;;;2.00;;
1613;SDS011;800;48.824;9.346;2023-11-19T04:04:53;2.10;;;1.90;;
1613;SDS011;800;48.824;9.346;2023-11-19T04:07:19;3.80;;;2.70;;
1613;SDS011;800;48.824;9.346;2023-11-19T04:09:45;2.33;;;2.23;;
1613;SDS011;800;48.824;9.346;2023-11-19T04:12:11;3.20;;;2.27;;
1613;SDS011;800;48.824;9.346;2023-11-19T04:14:37;2.63;;;2.17;;
1613;SDS011;800;48.824;9.346;2023-11-19T04:17:02;1.83;;;1.70;;
1613;SDS011;800;48.824;9.346;2023-11-19T04:19:28;2.03;;;1.83;;
1613;SDS011;800;48.824;9.346;2023-11-19T04:21:54;2.10;;;1.97;;
1613;SDS011;800;48.824;9.346;2023-11-19T04:24:19;2.03;;;1.93;;
1613;SDS011;800;48.824;9.346;2023-11-19T04:26:45;1.77;;;1.60;;
1613;SDS011;800;48.824;9.346;2023-11-19T04:29:12;1.63;;;0.90;;
1613;SDS011;800;48.824;9.346;2023-11-19T04:31:38;6.43;;;1.30;;
1613;SDS011;800;48.824;9.346;2023-11-19T04:34:04;1.00;;;0.90;;
1613;SDS011;800;48.824;9.346;2023-11-19T04:36:31;1.20;;;1.13;;
1613;SDS011;800;48.824;9.346;2023-11-19T04:38:58;1.90;;;1.00;;
1613;SDS011;800;48.824;9.346;2023-11-19T04:41:24;1.20;;;1.00;;
1613;SDS011;800;48.824;9.346;2023-11-19T04:43:50;1.00;;;0.90;;
1613;SDS011;800;48.824;9.346;2023-11-19T04:46:16;1.10;;;1.00;;
1613;SDS011;800;48.824;9.346;2023-11-19T04:48:41;1.47;;;0.90;;
1613;SDS011;800;48.824;9.346;2023-11-19T04:51:07;2.50;;;1.07;;
1613;SDS011;800;48.824;9.346;2023-11-19T04:53:34;0.97;;;0.97;;
1613;SDS011;800;48.824;9.346;2023-11-19T04:56:00;0.87;;;0.87;;
1613;SDS011;800;48.824;9.346;2023-11-19T04:58:26;1.10;;;1.00;;
1613;SDS011;800;48.824;9.346;2023-11-19T05:00:54;0.97;;;0.73;;
1613;SDS011;800;48.824;9.346;2023-11-19T05:03:19;2.40;;;0.90;;
1613;SDS011;800;48.824;9.346;2023-11-19T05:05:45;1.47;;;0.73;;
1613;SDS011;800;48.824;9.346;2023-11-19T05:08:10;1.10;;;0.80;;
1613;SDS011;800;48.824;9.346;2023-11-19T05:10:36;0.97;;;0.80;;
1613;SDS011;800;48.824;9.346;2023-11-19T05:13:02;0.70;;;0.70;;
1613;SDS011;800;48.824;9.346;2023-11-19T05:15:27;0.93;;;0.70;;
1613;SDS011;800;48.824;9.346;2023-11-19T05:17:53;3.20;;;0.60;;
1613;SDS011;800;48.824;9.346;2023-11-19T05:20:18;0.73;;;0.73;;
1613;SDS011;800;48.824;9.346;2023-11-19T05:22:44;0.80;;;0.70;;
1613;SDS011;800;48.824;9.346;2023-11-19T05:25:10;0.80;;;0.60;;
1613;SDS011;800;48.824;9.346;2023-11-19T05:27:36;0.93;;;0.67;;
1613;SDS011;800;48.824;9.346;2023-11-19T05:30:03;0.83;;;0.60;;
1613;SDS011;800;48.824;9.346;2023-11-19T05:32:31;0.67;;;0.60;;
1613;SDS011;800;48.824;9.346;2023-11-19T05:34:57;0.50;;;0.50;;
1613;SDS011;800;48.824;9.346;2023-11-19T05:37:22;0.60;;;0.53;;
1613;SDS011;800;48.824;9.346;2023-11-19T05:39:48;0.80;;;0.50;;
1613;SDS011;800;48.824;9.346;2023-11-19T05:42:14;0.57;;;0.57;;
1613;SDS011;800;48.824;9.346;2023-11-19T05:44:39;0.60;;;0.60;;
1613;SDS011;800;48.824;9.346;2023-11-19T05:47:05;0.77;;;0.60;;
1613;SDS011;800;48.824;9.346;2023-11-19T05:49:32;0.50;;;0.50;;
1613;SDS011;800;48.824;9.346;2023-11-19T05:51:58;0.50;;;0.50;;
1613;SDS011;800;48.824;9.346;2023-11-19T05:54:23;0.47;;;0.47;;
1613;SDS011;800;48.824;9.346;2023-11-19T05:56:49;0.50;;;0.50;;
1613;SDS011;800;48.824;9.346;2023-11-19T05:59:14;0.77;;;0.50;;
1613;SDS011;800;48.824;9.346;2023-11-19T06:01:42;0.70;;;0.70;;
1613;SDS011;800;48.824;9.346;2023-11-19T06:04:08;1.63;;;0.60;;
1613;SDS011;800;48.824;9.346;2023-11-19T06:06:35;0.50;;;0.50;;
1613;SDS011;800;48.824;9.346;2023-11-19T06:09:01;0.60;;;0.60;;
1613;SDS011;800;48.824;9.346;2023-11-19T06:11:27;0.43;;;0.43;;
1613;SDS011;800;48.824;9.346;2023-11-19T06:13:53;0.60;;;0.60;;
1613;SDS011;800;48.824;9.346;2023-11-19T06:16:18;0.70;;;0.60;;
1613;SDS011;800;48.824;9.346;2023-11-19T06:18:44;0.83;;;0.60;;
1613;SDS011;800;48.824;9.346;2023-11-19T06:21:10;0.70;;;0.60;;
1613;SDS011;800;48.824;9.346;2023-11-19T06:23:37;0.93;;;0.80;;
1613;SDS011;800;48.824;9.346;2023-11-19T06:26:02;0.70;;;0.70;;
1613;SDS011;800;48.824;9.346;2023-11-19T06:28:28;0.50;;;0.50;;
1613;SDS011;800;48.824;9.346;2023-11-19T06:30:53;0.70;;;0.60;;
1613;SDS011;800;48.824;9.346;2023-11-19T06:33:19;0.77;;;0.70;;
1613;SDS011;800;48.824;9.346;2023-11-19T06:35:45;0.70;;;0.70;;
1613;SDS011;800;48.824;9.346;2023-11-19T06:38:10;0.70;;;0.60;;
1613;SDS011;800;48.824;9.346;2023-11-19T06:40:36;0.50;;;0.50;;
1613;SDS011;800;48.824;9.346;2023-11-19T06:43:02;0.60;;;0.60;;
1613;SDS011;800;48.824;9.346;2023-11-19T06:45:28;0.77;;;0.60;;
1613;SDS011;800;48.824;9.346;2023-11-19T06:47:54;1.23;;;0.60;;
1613;SDS011;800;48.824;9.346;2023-11-19T06:50:19;2.53;;;0.60;;
1613;SDS011;800;48.824;9.346;2023-11-19T06:52:45;0.60;;;0.60;;
1613;SDS011;800;48.824;9.346;2023-11-19T06:55:11;0.80;;;0.50;;
1613;SDS011;800;48.824;9.346;2023-11-19T06:57:37;0.77;;;0.70;;
1613;SDS011;800;48.824;9.346;2023-11-19T07:00:02;2.93;;;0.60;;
1613;SDS011;800;48.824;9.346;2023-11-19T07:02:30;0.70;;;0.70;;
1613;SDS011;800;48.824;9.346;2023-11-19T07:04:56;0.60;;;0.60;;
1613;SDS011;800;48.824;9.346;2023-11-19T07:07:22;0.63;;;0.63;;
1613;SDS011;800;48.824;9.346;2023-11-19T07:09:47;0.60;;;0.60;;
1613;SDS011;800;48.824;9.346;2023-11-19T07:12:13;0.70;;;0.70;;
1613;SDS011;800;48.824;9.346;2023-11-19T07:14:39;5.10;;;0.70;;
1613;SDS011;800;48.824;9.346;2023-11-19T07:17:06;0.90;;;0.80;;
1613;SDS011;800;48.824;9.346;2023-11-19T07:19:34;0.60;;;0.60;;
1613;SDS011;800;48.824;9.346;2023-11-19T07:22:01;0.90;;;0.60;;
1613;SDS011;800;48.824;9.346;2023-11-19T07:24:27;0.50;;;0.50;;
1613;SDS011;800;48.824;9.346;2023-11-19T07:26:53;0.50;;;0.50;;
1613;SDS011;800;48.824;9.346;2023-11-19T07:29:19;0.77;;;0.70;;
1613;SDS011;800;48.824;9.346;2023-11-19T07:31:46;0.70;;;0.60;;
1613;SDS011;800;48.824;9.346;2023-11-19T07:34:13;0.73;;;0.73;;
1613;SDS011;800;48.824;9.346;2023-11-19T07:36:39;1.30;;;0.60;;
1613;SDS011;800;48.824;9.346;2023-11-19T07:39:04;0.80;;;0.70;;
1613;SDS011;800;48.824;9.346;2023-11-19T07:41:33;0.90;;;0.60;;
1613;SDS011;800;48.824;9.346;2023-11-19T07:43:59;0.67;;;0.67;;
1613;SDS011;800;48.824;9.346;2023-11-19T07:46:25;0.70;;;0.70;;
1613;SDS011;800;48.824;9.346;2023-11-19T07:48:52;0.50;;;0.50;;
1613;SDS011;800;48.824;9.346;2023-11-19T07:51:17;1.10;;;0.63;;
1613;SDS011;800;48.824;9.346;2023-11-19T07:53:43;1.93;;;0.87;;
1613;SDS011;800;48.824;9.346;2023-11-19T07:56:09;1.03;;;0.93;;
1613;SDS011;800;48.824;9.346;2023-11-19T07:58:35;1.53;;;1.00;;
1613;SDS011;800;48.824;9.346;2023-11-19T08:01:01;0.70;;;0.70;;
1613;SDS011;800;48.824;9.346;2023-11-19T08:03:27;0.70;;;0.70;;
1613;SDS011;800;48.824;9.346;2023-11-19T08:05:57;1.40;;;1.30;;
1613;SDS011;800;48.824;9.346;2023-11-19T08:08:26;2.43;;;1.30;;
1613;SDS011;800;48.824;9.346;2023-11-19T08:10:51;1.20;;;1.00;;
1613;SDS011;800;48.824;9.346;2023-11-19T08:13:18;1.20;;;1.10;;
1613;SDS011;800;48.824;9.346;2023-11-19T08:15:45;4.87;;;4.47;;
1613;SDS011;800;48.824;9.346;2023-11-19T08:18:11;2.30;;;2.10;;
1613;SDS011;800;48.824;9.346;2023-11-19T08:20:36;1.43;;;0.93;;
1613;SDS011;800;48.824;9.346;2023-11-19T08:23:02;1.40;;;0.90;;
1613;SDS011;800;48.824;9.346;2023-11-19T08:25:31;2.70;;;1.43;;
1613;SDS011;800;48.824;9.346;2023-11-19T08:27:58;2.40;;;1.43;;
1613;SDS011;800;48.824;9.346;2023-11-19T08:30:24;1.83;;;1.10;;
1613;SDS011;800;48.824;9.346;2023-11-19T08:32:50;2.17;;;0.93;;
1613;SDS011;800;48.824;9.346;2023-11-19T08:35:15;0.70;;;0.70;;
1613;SDS011;800;48.824;9.346;2023-11-19T08:37:41;0.80;;;0.80;;
1613;SDS011;800;48.824;9.346;2023-11-19T08:40:07;0.70;;;0.70;;
1613;SDS011;800;48.824;9.346;2023-11-19T08:42:33;0.97;;;0.80;;
1613;SDS011;800;48.824;9.346;2023-11-19T08:44:58;2.03;;;0.60;;
1613;SDS011;800;48.824;9.346;2023-11-19T08:47:24;0.60;;;0.60;;
1613;SDS011;800;48.824;9.346;2023-11-19T08:49:52;1.20;;;0.70;;
1613;SDS011;800;48.824;9.346;2023-11-19T08:52:18;0.77;;;0.77;;
1613;SDS011;800;48.824;9.346;2023-11-19T08:54:44;1.47;;;0.80;;
1613;SDS011;800;48.824;9.346;2023-11-19T08:57:09;0.80;;;0.80;;
1613;SDS011;800;48.824;9.346;2023-11-19T08:59:35;0.63;;;0.63;;
1613;SDS011;800;48.824;9.346;2023-11-19T09:02:03;0.90;;;0.90;;
1613;SDS011;800;48.824;9.346;2023-11-19T09:04:29;3.47;;;0.77;;
1613;SDS011;800;48.824;9.346;2023-11-19T09:06:54;1.17;;;0.77;;
1613;SDS011;800;48.824;9.346;2023-11-19T09:09:22;1.10;;;0.80;;
1613;SDS011;800;48.824;9.346;2023-11-19T09:11:47;2.30;;;0.73;;
1613;SDS011;800;48.824;9.346;2023-11-19T09:14:13;0.90;;;0.80;;
1613;SDS011;800;48.824;9.346;2023-11-19T09:16:38;1.53;;;0.80;;
1613;SDS011;800;48.824;9.346;2023-11-19T09:19:04;0.70;;;0.70;;
1613;SDS011;800;48.824;9.346;2023-11-19T09:21:30;3.93;;;0.73;;
1613;SDS011;800;48.824;9.346;2023-11-19T09:23:55;1.33;;;1.10;;
1613;SDS011;800;48.824;9.346;2023-11-19T09:26:21;1.00;;;0.90;;
1613;SDS011;800;48.824;9.346;2023-11-19T09:28:46;1.00;;;0.80;;
1613;SDS011;800;48.824;9.346;2023-11-19T09:31:16;0.80;;;0.80;;
1613;SDS011;800;48.824;9.346;2023-11-19T09:33:42;1.20;;;0.90;;
1613;SDS011;800;48.824;9.346;2023-11-19T09:36:08;0.90;;;0.90;;
1613;SDS011;800;48.824;9.346;2023-11-19T09:38:35;0.90;;;0.73;;
1613;SDS011;800;48.824;9.346;2023-11-19T09:41:04;1.63;;;0.90;;
1613;SDS011;800;48.824;9.346;2023-11-19T09:43:35;0.80;;;0.80;;
1613;SDS011;800;48.824;9.346;2023-11-19T09:46:06;1.37;;;0.83;;
1613;SDS011;800;48.824;9.346;2023-11-19T09:48:38;2.00;;;1.10;;
1613;SDS011;800;48.824;9.346;2023-11-19T09:51:08;1.63;;;1.50;;
1613;SDS011;800;48.824;9.346;2023-11-19T09:53:34;1.33;;;1.20;;
1613;SDS011;800;48.824;9.346;2023-11-19T09:56:04;1.07;;;0.97;;
1613;SDS011;800;48.824;9.346;2023-11-19T09:58:33;1.30;;;0.83;;
1613;SDS011;800;48.824;9.346;2023-11-19T10:00:59;2.00;;;1.40;;
1613;SDS011;800;48.824;9.346;2023-11-19T10:03:27;1.20;;;1.10;;
1613;SDS011;800;48.824;9.346;2023-11-19T10:05:58;1.50;;;1.20;;
1613;SDS011;800;48.824;9.346;2023-11-19T10:08:26;1.40;;;1.30;;
1613;SDS011;800;48.824;9.346;2023-11-19T10:10:51;1.70;;;1.30;;
1613;SDS011;800;48.824;9.346;2023-11-19T10:13:17;2.17;;;0.97;;
1613;SDS011;800;48.824;9.346;2023-11-19T10:15:43;1.60;;;1.10;;
1613;SDS011;800;48.824;9.346;2023-11-19T10:18:09;1.10;;;0.93;;
1613;SDS011;800;48.824;9.346;2023-11-19T10:20:40;1.00;;;1.00;;
1613;SDS011;800;48.824;9.346;2023-11-19T10:23:06;1.43;;;1.27;;
1613;SDS011;800;48.824;9.346;2023-11-19T10:25:32;1.13;;;0.87;;
1613;SDS011;800;48.824;9.346;2023-11-19T10:27:59;1.20;;;1.00;;
1613;SDS011;800;48.824;9.346;2023-11-19T10:30:28;2.97;;;1.10;;
1613;SDS011;800;48.824;9.346;2023-11-19T10:33:04;0.73;;;0.70;;
1613;SDS011;800;48.824;9.346;2023-11-19T10:35:36;0.93;;;0.93;;
1613;SDS011;800;48.824;9.346;2023-11-19T10:38:16;0.90;;;0.90;;
1613;SDS011;800;48.824;9.346;2023-11-19T10:40:42;1.50;;;1.10;;
1613;SDS011;800;48.824;9.346;2023-11-19T10:43:07;0.97;;;0.97;;
1613;SDS011;800;48.824;9.346;2023-11-19T10:45:34;1.47;;;0.80;;
1613;SDS011;800;48.824;9.346;2023-11-19T10:48:00;0.80;;;0.80;;
1613;SDS011;800;48.824;9.346;2023-11-19T10:50:29;1.00;;;0.90;;
1613;SDS011;800;48.824;9.346;2023-11-19T10:52:58;1.47;;;0.80;;
1613;SDS011;800;48.824;9.346;2023-11-19T10:55:26;0.80;;;0.80;;
1613;SDS011;800;48.824;9.346;2023-11-19T10:57:56;1.17;;;0.90;;
1613;SDS011;800;48.824;9.346;2023-11-19T11:01:16;0.80;;;0.80;;
1613;SDS011;800;48.824;9.346;2023-11-19T11:03:24;1.43;;;0.70;;
1613;SDS011;800;48.824;9.346;2023-11-19T11:05:51;3.23;;;1.10;;
1613;SDS011;800;48.824;9.346;2023-11-19T11:08:17;0.80;;;0.80;;
1613;SDS011;800;48.824;9.346;2023-11-19T11:10:48;0.70;;;0.70;;
1613;SDS011;800;48.824;9.346;2023-11-19T11:13:18;0.80;;;0.80;;
1613;SDS011;800;48.824;9.346;2023-11-19T11:15:44;0.93;;;0.90;;
1613;SDS011;800;48.824;9.346;2023-11-19T11:18:12;1.07;;;1.03;;
1613;SDS011;800;48.824;9.346;2023-11-19T11:20:38;4.60;;;1.50;;
1613;SDS011;800;48.824;9.346;2023-11-19T11:36:57;1.57;;;0.90;;
1613;SDS011;800;48.824;9.346;2023-11-19T11:39:33;0.73;;;0.73;;
1613;SDS011;800;48.824;9.346;2023-11-19T11:50:19;2.10;;;0.97;;
1613;SDS011;800;48.824;9.346;2023-11-19T11:55:27;1.23;;;0.90;;
1613;SDS011;800;48.824;9.346;2023-11-19T11:57:55;1.10;;;1.00;;
1613;SDS011;800;48.824;9.346;2023-11-19T12:00:22;1.00;;;0.90;;
1613;SDS011;800;48.824;9.346;2023-11-19T12:02:51;1.73;;;0.80;;
1613;SDS011;800;48.824;9.346;2023-11-19T12:05:17;3.50;;;1.83;;
1613;SDS011;800;48.824;9.346;2023-11-19T12:07:45;1.37;;;0.83;;
1613;SDS011;800;48.824;9.346;2023-11-19T12:10:20;2.80;;;0.90;;
1613;SDS011;800;48.824;9.346;2023-11-19T12:12:47;3.53;;;1.10;;
1613;SDS011;800;48.824;9.346;2023-11-19T12:15:12;1.60;;;0.87;;
1613;SDS011;800;48.824;9.346;2023-11-19T12:17:43;2.70;;;0.90;;
1613;SDS011;800;48.824;9.346;2023-11-19T12:20:14;3.60;;;1.60;;
1613;SDS011;800;48.824;9.346;2023-11-19T12:22:41;0.87;;;0.87;;
1613;SDS011;800;48.824;9.346;2023-11-19T12:25:08;0.90;;;0.73;;
1613;SDS011;800;48.824;9.346;2023-11-19T12:27:45;0.90;;;0.60;;
1613;SDS011;800;48.824;9.346;2023-11-19T12:30:21;2.10;;;0.90;;
1613;SDS011;800;48.824;9.346;2023-11-19T12:32:48;1.20;;;0.80;;
1613;SDS011;800;48.824;9.346;2023-11-19T12:35:14;3.73;;;1.10;;
1613;SDS011;800;48.824;9.346;2023-11-19T12:40:15;1.40;;;1.00;;
1613;SDS011;800;48.824;9.346;2023-11-19T12:42:45;1.90;;;1.00;;
1613;SDS011;800;48.824;9.346;2023-11-19T12:45:11;2.03;;;0.90;;
1613;SDS011;800;48.824;9.346;2023-11-19T12:47:40;1.33;;;0.83;;
1613;SDS011;800;48.824;9.346;2023-11-19T12:50:06;3.17;;;1.10;;
1613;SDS011;800;48.824;9.346;2023-11-19T12:52:36;1.40;;;0.73;;
1613;SDS011;800;48.824;9.346;2023-11-19T12:55:05;1.33;;;0.83;;
1613;SDS011;800;48.824;9.346;2023-11-19T12:57:51;4.53;;;1.10;;
1613;SDS011;800;48.824;9.346;2023-11-19T13:00:23;2.50;;;1.50;;
1613;SDS011;800;48.824;9.346;2023-11-19T13:08:07;1.87;;;0.90;;
1613;SDS011;800;48.824;9.346;2023-11-19T13:13:18;2.70;;;1.00;;
1613;SDS011;800;48.824;9.346;2023-11-19T13:15:44;2.20;;;0.90;;
1613;SDS011;800;48.824;9.346;2023-11-19T13:18:10;0.90;;;0.80;;
1613;SDS011;800;48.824;9.346;2023-11-19T13:20:36;1.77;;;1.00;;
1613;SDS011;800;48.824;9.346;2023-11-19T13:23:03;1.03;;;0.70;;
1613;SDS011;800;48.824;9.346;2023-11-19T13:25:30;1.00;;;0.87;;
1613;SDS011;800;48.824;9.346;2023-11-19T13:27:57;1.53;;;1.17;;
1613;SDS011;800;48.824;9.346;2023-11-19T13:30:23;1.77;;;0.80;;
1613;SDS011;800;48.824;9.346;2023-11-19T13:32:49;0.80;;;0.67;;
1613;SDS011;800;48.824;9.346;2023-11-19T13:35:16;1.07;;;0.70;;
1613;SDS011;800;48.824;9.346;2023-11-19T13:37:45;1.23;;;0.90;;
1613;SDS011;800;48.824;9.346;2023-11-19T13:40:11;2.30;;;1.00;;
1613;SDS011;800;48.824;9.346;2023-11-19T13:42:39;2.10;;;0.83;;
1613;SDS011;800;48.824;9.346;2023-11-19T13:45:09;0.93;;;0.70;;
1613;SDS011;800;48.824;9.346;2023-11-19T13:47:42;1.07;;;0.97;;
1613;SDS011;800;48.824;9.346;2023-11-19T13:50:12;1.93;;;0.70;;
1613;SDS011;800;48.824;9.346;2023-11-19T13:52:40;0.80;;;0.77;;
1613;SDS011;800;48.824;9.346;2023-11-19T13:55:08;1.03;;;0.83;;
1613;SDS011;800;48.824;9.346;2023-11-19T13:57:36;0.70;;;0.70;;
1613;SDS011;800;48.824;9.346;2023-11-19T14:00:06;1.57;;;1.47;;
1613;SDS011;800;48.824;9.346;2023-11-19T14:02:39;1.33;;;0.80;;
1613;SDS011;800;48.824;9.346;2023-11-19T14:05:05;2.53;;;1.17;;
1613;SDS011;800;48.824;9.346;2023-11-19T14:07:32;0.80;;;0.80;;
1613;SDS011;800;48.824;9.346;2023-11-19T14:09:57;1.90;;;0.90;;
1613;SDS011;800;48.824;9.346;2023-11-19T14:12:23;1.10;;;0.90;;
1613;SDS011;800;48.824;9.346;2023-11-19T14:14:49;1.80;;;1.00;;
1613;SDS011;800;48.824;9.346;2023-11-19T14:17:14;2.27;;;0.70;;
1613;SDS011;800;48.824;9.346;2023-11-19T14:19:41;2.57;;;0.83;;
1613;SDS011;800;48.824;9.346;2023-11-19T14:22:07;2.40;;;1.30;;
1613;SDS011;800;48.824;9.346;2023-11-19T14:24:33;2.60;;;1.17;;
1613;SDS011;800;48.824;9.346;2023-11-19T14:26:59;1.20;;;0.77;;
1613;SDS011;800;48.824;9.346;2023-11-19T14:29:25;4.80;;;1.20;;
1613;SDS011;800;48.824;9.346;2023-11-19T14:31:51;2.23;;;0.90;;
1613;SDS011;800;48.824;9.346;2023-11-19T14:34:19;4.63;;;1.00;;
1613;SDS011;800;48.824;9.346;2023-11-19T14:36:45;1.17;;;1.00;;
1613;SDS011;800;48.824;9.346;2023-11-19T14:39:10;0.90;;;0.80;;
1613;SDS011;800;48.824;9.346;2023-11-19T14:41:36;1.10;;;0.80;;
1613;SDS011;800;48.824;9.346;2023-11-19T14:44:02;1.33;;;1.10;;
1613;SDS011;800;48.824;9.346;2023-11-19T14:46:28;1.07;;;0.70;;
1613;SDS011;800;48.824;9.346;2023-11-19T14:48:54;2.80;;;1.20;;
1613;SDS011;800;48.824;9.346;2023-11-19T14:51:19;3.27;;;1.10;;
1613;SDS011;800;48.824;9.346;2023-11-19T14:53:45;2.30;;;0.70;;
1613;SDS011;800;48.824;9.346;2023-11-19T14:56:11;0.90;;;0.80;;
1613;SDS011;800;48.824;9.346;2023-11-19T14:58:40;5.00;;;0.83;;
1613;SDS011;800;48.824;9.346;2023-11-19T15:01:06;2.40;;;0.80;;
1613;SDS011;800;48.824;9.346;2023-11-19T15:03:37;0.87;;;0.80;;
1613;SDS011;800;48.824;9.346;2023-11-19T15:06:02;2.80;;;0.90;;
1613;SDS011;800;48.824;9.346;2023-11-19T15:08:28;0.90;;;0.90;;
1613;SDS011;800;48.824;9.346;2023-11-19T15:10:55;1.90;;;0.80;;
1613;SDS011;800;48.824;9.346;2023-11-19T15:13:22;0.80;;;0.80;;
1613;SDS011;800;48.824;9.346;2023-11-19T15:15:48;1.40;;;1.03;;
1613;SDS011;800;48.824;9.346;2023-11-19T15:18:13;1.03;;;0.80;;
1613;SDS011;800;48.824;9.346;2023-11-19T15:20:39;1.20;;;0.90;;
1613;SDS011;800;48.824;9.346;2023-11-19T15:23:04;3.03;;;1.03;;
1613;SDS011;800;48.824;9.346;2023-11-19T15:25:30;1.43;;;1.00;;
1613;SDS011;800;48.824;9.346;2023-11-19T15:27:55;2.67;;;0.70;;
1613;SDS011;800;48.824;9.346;2023-11-19T15:30:21;0.80;;;0.70;;
1613;SDS011;800;48.824;9.346;2023-11-19T15:32:47;1.10;;;1.00;;
1613;SDS011;800;48.824;9.346;2023-11-19T15:35:13;1.83;;;0.90;;
1613;SDS011;800;48.824;9.346;2023-11-19T15:37:38;1.30;;;0.90;;
1613;SDS011;800;48.824;9.346;2023-11-19T15:40:06;1.13;;;1.03;;
1613;SDS011;800;48.824;9.346;2023-11-19T15:42:33;1.17;;;1.07;;
1613;SDS011;800;48.824;9.346;2023-11-19T15:44:59;2.20;;;1.13;;
1613;SDS011;800;48.824;9.346;2023-11-19T15:47:25;2.40;;;0.90;;
1613;SDS011;800;48.824;9.346;2023-11-19T15:49:50;1.30;;;0.87;;
1613;SDS011;800;48.824;9.346;2023-11-19T15:52:16;2.40;;;1.07;;
1613;SDS011;800;48.824;9.346;2023-11-19T15:54:42;1.90;;;1.27;;
1613;SDS011;800;48.824;9.346;2023-11-19T15:57:07;1.67;;;1.57;;
1613;SDS011;800;48.824;9.346;2023-11-19T15:59:33;1.13;;;1.03;;
1613;SDS011;800;48.824;9.346;2023-11-19T16:01:58;4.70;;;1.50;;
1613;SDS011;800;48.824;9.346;2023-11-19T16:04:24;2.70;;;2.13;;